Tiempo atmosférico en la estación meteorológica de Albox, Almería (508 m.)

Fecha
DESCASC
Temp. máxima en grados centígrados (hora)
DESCASC
Temp. mínima en grados centígrados (hora)
DESCASC
Temp. media en grados centígrados
DESCASC
Racha de viento máxima en m/sg (hora)
DESCASC
Velocidad máxima media en intervalos de 10 minutos(hora)
DESCASC
Precipitaciones diarias en mm
DESCASC
Precipitaciones de 00:00 a 06:00 en mm
DESCASC
Precipitaciones de 06:00 a 12:00 en mm
DESCASC
Precipitaciones de 12:00 a 18:00 en mm
DESCASC
Precipitaciones de 18:00 a 24:00 en mm
DESCASC
10-12-2017 19.1 (14:20) 11 (08:20) 15.1 20.28 (20:50) 13.06 (21:10) 0 0 0 0 0
09-12-2017 18.9 (13:50) 11.6 (06:10) 15.3 15 (01:20) 11.11 (01:10) 0 0 0 0 0
08-12-2017 21.6 (15:30) 4.5 (00:30) 13.1 13.89 (21:30) 10 (20:50) 0 0 0 0 0
07-12-2017 16.8 (15:20) 2.4 (00:00) 9.6 5 (00:10) 4.17 (00:10) 0 0 0 0 0
06-12-2017 15.5 (14:40) 3 (00:00) 9.3 5.28 (15:30) 4.17 (05:40) 0 0 0 0 0
05-12-2017 14.7 (15:20) 1.3 (00:00) 8 4.44 (02:40) 3.61 (02:50) 0 0 0 0 0
04-12-2017 13.4 (15:30) 0.7 (00:00) 7 5.56 (14:50) 3.61 (01:00) 0 0 0 0 0
03-12-2017 14.5 (15:50) 1.8 (00:00) 8.1 13.61 (03:10) 10.28 (03:10) 0 0 0 0 0
02-12-2017 11.8 (15:00) 1.2 (00:00) 6.5 11.94 (10:50) 9.17 (10:50) 0 0 0 0 0
01-12-2017 12.8 (14:50) 1.9 (00:00) 7.4 17.78 (15:30) 13.33 (15:30) 0 0 0 0 0
30-11-2017 11 (02:00) 3.3 (00:00) 7.1 5 (20:00) 3.61 (20:00) 1.8 0 1.8 0 0
29-11-2017 20.6 (12:30) 10.6 (00:00) 15.6 14.17 (08:10) 8.89 (12:40) 9.4 0.8 1.2 6.4 1
28-11-2017 16 (14:00) 9.2 (00:00) 12.6 2.78 (06:50) 2.5 (06:50) 0 0 0 0 0
27-11-2017 16.1 (15:30) 11.8 (00:00) 14 5 (16:50) 3.33 (17:00) 0 0 0 0 0
26-11-2017 19.4 (14:30) 11.1 (00:00) 15.3 10.83 (00:10) 8.06 (00:10) 0 0 0 0 0
25-11-2017 23.6 (15:40) 12.7 (00:00) 18.2 13.06 (15:50) 8.61 (15:50) 0 0 0 0 0
24-11-2017 25.8 (14:00) 10.5 (00:00) 18.1 6.67 (15:20) 4.17 (15:20) 0 0 0 0 0
23-11-2017 25 (13:50) 8.9 (00:00) 16.9 6.67 (02:30) 4.17 (15:10) 0 0 0 0 0
22-11-2017 21.7 (14:30) 7.2 (00:00) 14.5 5.56 (14:30) 3.89 (17:30) 0 0 0 0 0
21-11-2017 22.9 (14:00) 8.2 (00:00) 15.5 6.39 (14:40) 4.17 (14:30) 0 0 0 0 0
20-11-2017 22.5 (14:20) 8.3 (00:00) 15.4 6.11 (15:10) 3.89 (15:00) 0 0 0 0 0
19-11-2017 20.3 (14:50) 6 (00:00) 13.1 5.56 (16:10) 3.61 (15:50) 0 0 0 0 0
18-11-2017 21 (14:10) 7.9 (00:00) 14.5 6.39 (15:30) 4.72 (16:20) 0 0 0 0 0
17-11-2017 20.8 (14:20) 6.1 (00:00) 13.4 6.39 (16:00) 4.72 (16:00) 0 0 0 0 0
16-11-2017 20.8 (13:20) 7 (00:00) 13.9 7.22 (15:50) 4.72 (15:20) 0 0 0 0 0
15-11-2017 19.5 (14:40) 4.9 (00:00) 12.2 6.39 (15:20) 3.89 (15:50) 0 0 0 0 0

Gráficas

Temp. máximas Temp. mínimas Temp. medias Precipitaciones Rachas de viento máximas Velocidades máximas media en intervalos de 10 minutos

Datos horarios

Fecha y hora oficial Temperatura (ºC) Velocidad del viento (km/h) Dirección del viento Racha (km/h) Dirección de racha Precipitación (mm) Presión (hPa) Tendencia (hPa) Humedad (%)
2017-12-14 23:00:00 13 37 Oeste 56 Oeste 0 -- -- 65
2017-12-14 22:00:00 12.6 32 Oeste 50 Sudoeste 0 -- -- 66
2017-12-14 21:00:00 13.1 34 Sudoeste 57 Sudoeste 0 -- -- 65
2017-12-14 20:00:00 13.7 32 Oeste 53 Oeste 0 -- -- 62
2017-12-14 19:00:00 14.3 24 Oeste 41 Oeste 0 -- -- 59
2017-12-14 18:00:00 15.5 35 Oeste 52 Oeste 0 -- -- 55
2017-12-14 17:00:00 17.3 27 Oeste 42 Oeste 0 -- -- 49
2017-12-14 16:00:00 19.9 24 Oeste 48 Oeste 0 -- -- 43
2017-12-14 15:00:00 20.5 31 Oeste 53 Oeste 0 -- -- 41
2017-12-14 14:00:00 20.2 32 Oeste 50 Oeste 0 -- -- 40
2017-12-14 13:00:00 18.3 33 Oeste 45 Oeste 0 -- -- 42
2017-12-14 12:00:00 17.3 30 Oeste 42 Oeste 0 -- -- 42
2017-12-14 11:00:00 14 18 Oeste 27 Sudoeste 0 -- -- 44
2017-12-14 10:00:00 11.4 21 Sudoeste 50 Oeste 0 -- -- 46
2017-12-14 09:00:00 9.4 28 Sudoeste 41 Sudoeste 0 -- -- 50
2017-12-14 08:00:00 6.2 5 Noroeste 14 Oeste 0 -- -- 62
2017-12-14 07:00:00 6.9 3 Oeste 20 Noroeste 0 -- -- 59
2017-12-14 06:00:00 7.6 10 Noroeste 16 Noroeste 0 -- -- 54
2017-12-14 05:00:00 8.1 8 Noroeste 16 Oeste 0 -- -- 50
2017-12-14 04:00:00 6.3 7 Noroeste 17 Noroeste 0 -- -- 50
2017-12-14 03:00:00 6.6 6 Oeste 17 Oeste 0 -- -- 46
2017-12-14 02:00:00 6.9 11 Noroeste 21 Noroeste 0 -- -- 44
2017-12-14 01:00:00 6.7 12 Noroeste 32 Oeste 0 -- -- 46
2017-12-14 00:00:00 5.7 3 Nordeste 18 Oeste 0 -- -- 49
2017-12-13 23:00:00 6.8 2 Sudeste 17 Sudoeste 0 -- -- 47
2017-12-13 22:00:00 8.1 10 Sudoeste 31 Oeste 0 -- -- 45
2017-12-13 21:00:00 9.1 16 Oeste 28 Oeste 0 -- -- 40
2017-12-13 20:00:00 8.8 10 Noroeste 28 Oeste 0 -- -- 37
2017-12-13 19:00:00 9.3 10 Oeste 15 Oeste 0 -- -- 38
2017-12-13 18:00:00 11.6 14 Oeste 28 Oeste 0 -- -- 30
2017-12-13 17:00:00 15.3 21 Oeste 36 Oeste 0 -- -- 23
2017-12-13 16:00:00 16.9 24 Oeste 33 Oeste 0 -- -- 20
2017-12-13 15:00:00 17.5 5 Sudeste 24 Oeste 0 -- -- 27
2017-12-13 14:00:00 17.6 7 Sur 17 Sudoeste 0 -- -- 22
2017-12-13 13:00:00 15.7 8 Sudoeste 14 Sudoeste 0 -- -- 27
2017-12-13 12:00:00 13.5 5 Sur 10 Sudoeste 0 -- -- 31
2017-12-13 11:00:00 9.8 5 Sur 9 Sur 0 -- -- 40
2017-12-13 10:00:00 5.8 0 Calma 9 Noroeste 0 -- -- 48
2017-12-13 09:00:00 1.9 6 Noroeste 9 Norte 0 -- -- 58
2017-12-13 08:00:00 1.2 6 Oeste 13 Noroeste 0 -- -- 59
2017-12-13 07:00:00 1.8 12 Noroeste 14 Noroeste 0 -- -- 59
2017-12-13 06:00:00 1.5 4 Noroeste 12 Noroeste 0 -- -- 59
2017-12-13 05:00:00 2.4 9 Noroeste 13 Noroeste 0 -- -- 56
2017-12-13 04:00:00 3.5 10 Noroeste 16 Oeste 0 -- -- 56
2017-12-13 03:00:00 2.7 6 Noroeste 12 Noroeste 0 -- -- 58
2017-12-13 02:00:00 3 9 Noroeste 13 Noroeste 0 -- -- 57
2017-12-13 01:00:00 3.6 9 Noroeste 14 Noroeste 0 -- -- 56
2017-12-13 00:00:00 3.7 4 Noroeste 13 Oeste 0 -- -- 56
2017-12-12 23:00:00 4.4 9 Noroeste 15 Noroeste 0 -- -- 59
2017-12-12 22:00:00 5.2 11 Noroeste 18 Noroeste 0 -- -- 57
2017-12-12 21:00:00 6 11 Noroeste 15 Noroeste 0 -- -- 56
2017-12-12 20:00:00 6.9 11 Oeste 23 Oeste 0 -- -- 54
2017-12-12 19:00:00 8.1 14 Oeste 28 Oeste 0 -- -- 50
2017-12-12 18:00:00 9.8 11 Oeste 21 Oeste 0 -- -- 46
2017-12-12 17:00:00 14 13 Oeste 20 Oeste 0 -- -- 34
2017-12-12 16:00:00 15.2 17 Oeste 32 Oeste 0 -- -- 33
2017-12-12 15:00:00 15.4 17 Oeste 37 Oeste 0 -- -- 30
2017-12-12 14:00:00 14.4 26 Sudoeste 43 Oeste 0 -- -- 38
2017-12-12 13:00:00 14 14 Oeste 32 Oeste 0 -- -- 43
2017-12-12 12:00:00 12 23 Oeste 34 Oeste 0 -- -- 50
2017-12-12 11:00:00 9.7 26 Oeste 44 Oeste 0 -- -- 59
2017-12-12 10:00:00 8 28 Oeste 41 Oeste 0 -- -- 66
2017-12-12 09:00:00 6.2 18 Oeste 32 Oeste 0 -- -- 72
2017-12-12 08:00:00 4.9 20 Oeste 26 Oeste 0 -- -- 76
2017-12-12 07:00:00 4.6 13 Oeste 24 Oeste 0 -- -- 75
2017-12-12 06:00:00 5.9 13 Sudoeste 36 Oeste 0 -- -- 71
2017-12-12 05:00:00 6.8 28 Oeste 37 Oeste 0 -- -- 69
2017-12-12 04:00:00 5.3 7 Oeste 22 Oeste 0 -- -- 71
2017-12-12 03:00:00 6 12 Oeste 27 Oeste 0 -- -- 64
2017-12-12 02:00:00 7.2 22 Oeste 34 Noroeste 0 -- -- 60
2017-12-12 01:00:00 6.8 17 Noroeste 22 Noroeste 0 -- -- 61
2017-12-12 00:00:00 7 17 Norte 22 Norte 0 -- -- 60
2017-12-11 23:00:00 7.3 15 Norte 22 Noroeste 0 -- -- 59
2017-12-11 22:00:00 6.2 14 Oeste 27 Oeste 0 -- -- 60
2017-12-11 21:00:00 6.9 8 Oeste 32 Oeste 0 -- -- 58
2017-12-11 20:00:00 7.8 16 Oeste 31 Oeste 0 -- -- 54
2017-12-11 19:00:00 8.2 12 Oeste 40 Oeste 0 -- -- 54
2017-12-11 18:00:00 8.6 22 Oeste 43 Oeste 0 -- -- 54
2017-12-11 17:00:00 10.1 19 Oeste 54 Oeste 0 -- -- 53
2017-12-11 16:00:00 11.8 33 Oeste 57 Oeste 0 -- -- 47
2017-12-11 15:00:00 10.8 35 Oeste 58 Oeste 0 -- -- 51
2017-12-11 14:00:00 10 37 Oeste 58 Oeste 0 -- -- 56
2017-12-11 13:00:00 9.9 35 Oeste 57 Oeste 0 -- -- 59
2017-12-11 12:00:00 9.3 41 Oeste 71 Noroeste 0 -- -- 61
2017-12-11 11:00:00 8.6 42 Oeste 86 Noroeste 0 -- -- 71
2017-12-11 10:00:00 13.6 46 Noroeste 66 Oeste 0 -- -- 64
2017-12-11 09:00:00 17.3 32 Sudoeste 57 Sudoeste 0 -- -- 47
2017-12-11 08:00:00 12 10 Este 22 Noroeste 0 -- -- 63
2017-12-11 07:00:00 11.8 5 Este 14 Este 0 -- -- 65
2017-12-11 06:00:00 12.4 4 Este 17 Este 0 -- -- 63
2017-12-11 05:00:00 12.4 4 Norte 21 Sudeste 0 -- -- 59
2017-12-11 04:00:00 12 10 Sudeste 29 Sudeste 0 -- -- 58
2017-12-11 03:00:00 11.5 8 Este 20 Este 0 -- -- 59
2017-12-11 02:00:00 11.6 6 Este 14 Noroeste 0 -- -- 58
2017-12-11 01:00:00 12.8 9 Sudeste 15 Sudeste 0 -- -- 52
2017-12-11 00:00:00 14.3 9 Sur 55 Oeste 0 -- -- 52
2017-12-10 23:00:00 14.7 28 Oeste 64 Oeste 0 -- -- 51
2017-12-10 22:00:00 14.8 45 Oeste 70 Oeste 0 -- -- 50
2017-12-10 21:00:00 14.3 37 Oeste 73 Oeste 0 -- -- 50
2017-12-10 20:00:00 14.1 35 Oeste 64 Oeste 0 -- -- 48
2017-12-10 19:00:00 14.5 42 Oeste 57 Sudoeste 0 -- -- 53
2017-12-10 18:00:00 14.1 18 Sudoeste 49 Oeste 0 -- -- 51
2017-12-10 17:00:00 14.7 29 Oeste 49 Oeste 0 -- -- 54
2017-12-10 16:00:00 16.6 32 Oeste 69 Oeste 0 -- -- 50
2017-12-10 15:00:00 18.6 41 Oeste 64 Oeste 0 -- -- 38
2017-12-10 14:00:00 18.8 42 Oeste 59 Oeste 0 -- -- 41
2017-12-10 13:00:00 18.2 35 Oeste 52 Oeste 0 -- -- 46
2017-12-10 12:00:00 18 25 Oeste 46 Oeste 0 -- -- 48
2017-12-10 11:00:00 16.6 23 Oeste 47 Oeste 0 -- -- 53
2017-12-10 10:00:00 15.2 35 Oeste 46 Oeste 0 -- -- 60
2017-12-10 09:00:00 12.4 17 Oeste 29 Oeste 0 -- -- 69
2017-12-10 08:00:00 11.3 10 Oeste 22 Sudoeste 0 -- -- 72
2017-12-10 07:00:00 12.6 19 Noroeste 31 Oeste 0 -- -- 68
2017-12-10 06:00:00 12.4 4 Noroeste 12 Sudoeste 0 -- -- 67
2017-12-10 05:00:00 12.4 11 Sudoeste 27 Sudoeste 0 -- -- 68
2017-12-10 04:00:00 12.4 9 Oeste 28 Oeste 0 -- -- 72
2017-12-10 03:00:00 14 18 Oeste 40 Noroeste 0 -- -- 66
2017-12-10 02:00:00 13.7 18 Oeste 36 Noroeste 0 -- -- 67
2017-12-10 01:00:00 13.8 26 Oeste 41 Oeste 0 -- -- 68
2017-12-10 00:00:00 13.3 27 Oeste 39 Oeste 0 -- -- 70
2017-12-09 23:00:00 12.5 9 Oeste 33 Oeste 0 -- -- 72
2017-12-09 22:00:00 12.6 13 Oeste 33 Oeste 0 -- -- 72
2017-12-09 21:00:00 12.7 12 Oeste 35 Noroeste 0 -- -- 72
2017-12-09 20:00:00 13.1 25 Oeste 34 Oeste 0 -- -- 71
2017-12-09 19:00:00 13.8 3 Noroeste 18 Oeste 0 -- -- 67
2017-12-09 18:00:00 15.2 11 Oeste 33 Oeste 0 -- -- 63
2017-12-09 17:00:00 16 20 Oeste 38 Oeste 0 -- -- 60
2017-12-09 16:00:00 16.1 32 Noroeste 46 Noroeste 0 -- -- 59
2017-12-09 15:00:00 16.4 33 Oeste 48 Oeste 0 -- -- 59
2017-12-09 14:00:00 18.9 33 Noroeste 46 Noroeste 0 -- -- 51
2017-12-09 13:00:00 17.8 29 Oeste 47 Oeste 0 -- -- 54
2017-12-09 12:00:00 17 24 Oeste 46 Oeste 0 -- -- 58
2017-12-09 11:00:00 14.8 25 Oeste 46 Oeste 0 -- -- 65
2017-12-09 10:00:00 13.9 14 Noroeste 28 Noroeste 0 -- -- 68
2017-12-09 09:00:00 13 19 Noroeste 33 Noroeste 0 -- -- 69
2017-12-09 08:00:00 12.2 21 Noroeste 34 Oeste 0 -- -- 68
2017-12-09 07:00:00 12.2 23 Oeste 33 Noroeste 0 -- -- 66
2017-12-09 06:00:00 11.9 5 Sudoeste 28 Noroeste 0 -- -- 59
2017-12-09 05:00:00 13.2 10 Oeste 39 Oeste 0 -- -- 55
2017-12-09 04:00:00 13 23 Oeste 47 Oeste 0 -- -- 52
2017-12-09 03:00:00 13 22 Oeste 36 Oeste 0 -- -- 54
2017-12-09 02:00:00 13.7 24 Oeste 54 Oeste 0 -- -- 55
2017-12-09 01:00:00 14.2 36 Oeste 50 Oeste 0 -- -- 56
2017-12-09 00:00:00 14 24 Oeste 47 Noroeste 0 -- -- 46
2017-12-08 23:00:00 14.5 23 Noroeste 46 Noroeste 0 -- -- 44
2017-12-08 22:00:00 14.5 33 Oeste 50 Noroeste 0 -- -- 41
2017-12-08 21:00:00 14.6 30 Oeste 48 Oeste 0 -- -- 43
2017-12-08 20:00:00 14.6 24 Noroeste 42 Oeste 0 -- -- 41
2017-12-08 19:00:00 15.1 25 Noroeste 45 Oeste 0 -- -- 37
2017-12-08 18:00:00 15.9 24 Oeste 37 Oeste 0 -- -- 37
2017-12-08 17:00:00 17.3 25 Oeste 36 Oeste 0 -- -- 35
2017-12-08 16:00:00 19.6 28 Oeste 39 Oeste 0 -- -- 28
2017-12-08 15:00:00 21.3 27 Oeste 40 Oeste 0 -- -- 24
2017-12-08 14:00:00 20.4 26 Oeste 46 Oeste 0 -- -- 24
2017-12-08 13:00:00 20.4 27 Oeste 39 Oeste 0 -- -- 23
2017-12-08 12:00:00 18 13 Sudoeste 19 Sudoeste 0 -- -- 24
2017-12-08 11:00:00 14.4 4 Sur 7 Sur 0 -- -- 31
2017-12-08 10:00:00 9.6 5 Oeste 15 Noroeste 0 -- -- 37
2017-12-08 09:00:00 6 10 Noroeste 15 Noroeste 0 -- -- 41
2017-12-08 08:00:00 4.9 10 Noroeste 15 Noroeste 0 -- -- 47
2017-12-08 07:00:00 5.3 10 Noroeste 12 Noroeste 0 -- -- 46
2017-12-08 06:00:00 5.8 3 Noroeste 13 Noroeste 0 -- -- 38
2017-12-08 05:00:00 5.8 7 Noroeste 14 Noroeste 0 -- -- 44
2017-12-08 04:00:00 5.6 10 Norte 14 Norte 0 -- -- 46
2017-12-08 03:00:00 4.8 5 Noroeste 18 Noroeste 0 -- -- 52
2017-12-08 02:00:00 5.5 13 Norte 15 Noroeste 0 -- -- 50
2017-12-08 01:00:00 4.8 7 Norte 13 Norte 0 -- -- 62
2017-12-08 00:00:00 4.9 5 Norte 12 Noroeste 0 -- -- 89
2017-12-07 23:00:00 5.6 5 Noroeste 12 Norte 0 -- -- 87
2017-12-07 22:00:00 6.3 9 Norte 12 Noroeste 0 -- -- 87
2017-12-07 21:00:00 6.5 7 Norte 9 Norte 0 -- -- 89
2017-12-07 20:00:00 7.3 5 Norte 6 Norte 0 -- -- 87
2017-12-07 19:00:00 8.8 4 Nordeste 11 Sudeste 0 -- -- 84
2017-12-07 18:00:00 11 7 Este 14 Sudeste 0 -- -- 73
2017-12-07 17:00:00 14.5 9 Sudeste 16 Sudeste 0 -- -- 60
2017-12-07 16:00:00 16.5 7 Sudeste 13 Este 0 -- -- 49
2017-12-07 15:00:00 16.3 3 Sudeste 13 Sudeste 0 -- -- 46
2017-12-07 14:00:00 15.4 3 Sur 10 Este 0 -- -- 41
2017-12-07 13:00:00 13.8 3 Sudeste 10 Este 0 -- -- 55
2017-12-07 12:00:00 12.6 5 Sur 10 Sudeste 0 -- -- 62
2017-12-07 11:00:00 10.5 2 Sur 5 Sur 0 -- -- 69
2017-12-07 10:00:00 6.3 2 Oeste 9 Noroeste 0 -- -- 81
2017-12-07 09:00:00 3.3 6 Noroeste 13 Norte 0 -- -- 89
2017-12-07 08:00:00 2.7 6 Noroeste 12 Noroeste 0 -- -- 88
2017-12-07 07:00:00 3.2 9 Noroeste 12 Noroeste 0 -- -- 90
2017-12-07 06:00:00 3.2 4 Noroeste 13 Norte 0 -- -- 89
2017-12-07 05:00:00 3.6 9 Norte 13 Norte 0 -- -- 92
2017-12-07 04:00:00 3.2 6 Noroeste 12 Noroeste 0 -- -- 90
2017-12-07 03:00:00 3.8 8 Noroeste 10 Noroeste 0 -- -- 90
2017-12-07 02:00:00 4 5 Noroeste 13 Noroeste 0 -- -- 86
2017-12-07 01:00:00 5.3 10 Noroeste 18 Norte 0 -- -- 84
2017-12-07 00:00:00 6.5 14 Noroeste 18 Noroeste 0 -- -- 83
2017-12-06 23:00:00 8.8 4 Oeste 9 Noroeste 0 -- -- 81
2017-12-06 22:00:00 8.7 2 Sudoeste 4 Sur 0 -- -- 82
2017-12-06 21:00:00 8.2 2 Norte 8 Norte 0 -- -- 85
2017-12-06 20:00:00 7.2 6 Norte 8 Norte 0 -- -- 88
2017-12-06 19:00:00 8.2 6 Nordeste 8 Nordeste 0 -- -- 81
2017-12-06 18:00:00 10.8 8 Este 15 Sudeste 0 -- -- 69
2017-12-06 17:00:00 13.8 10 Sudeste 17 Este 0 -- -- 57
2017-12-06 16:00:00 14.9 9 Este 19 Sudeste 0 -- -- 51
2017-12-06 15:00:00 15.1 6 Este 16 Sudeste 0 -- -- 50
2017-12-06 14:00:00 15 7 Sudeste 14 Sudeste 0 -- -- 53
2017-12-06 13:00:00 13.8 4 Nordeste 11 Sur 0 -- -- 57
2017-12-06 12:00:00 12.2 6 Nordeste 12 Este 0 -- -- 61
2017-12-06 11:00:00 10.3 5 Oeste 11 Noroeste 0 -- -- 68
2017-12-06 10:00:00 6.5 6 Noroeste 15 Noroeste 0 -- -- 79
2017-12-06 09:00:00 4.3 9 Noroeste 16 Noroeste 0 -- -- 83
2017-12-06 08:00:00 3.5 13 Noroeste 17 Norte 0 -- -- 83
2017-12-06 07:00:00 3.5 15 Norte 18 Norte 0 -- -- 85
2017-12-06 06:00:00 3.8 13 Norte 19 Norte 0 -- -- 83
2017-12-06 05:00:00 3.8 14 Norte 18 Norte 0 -- -- 79
2017-12-06 04:00:00 3.3 9 Noroeste 14 Norte 0 -- -- 81
2017-12-06 03:00:00 3.6 11 Norte 14 Norte 0 -- -- 80
2017-12-06 02:00:00 3.3 10 Norte 13 Noroeste 0 -- -- 79
2017-12-06 01:00:00 3.1 7 Norte 10 Norte 0 -- -- 84
2017-12-06 00:00:00 3.6 3 Noroeste 15 Noroeste 0 -- -- 86
2017-12-05 23:00:00 4.7 10 Noroeste 15 Noroeste 0 -- -- 85
2017-12-05 22:00:00 5.5 9 Norte 14 Norte 0 -- -- 85
2017-12-05 21:00:00 5.8 7 Norte 13 Norte 0 -- -- 82
2017-12-05 20:00:00 6.4 5 Norte 7 Norte 0 -- -- 81
2017-12-05 19:00:00 7.8 4 Nordeste 9 Sudeste 0 -- -- 78
2017-12-05 18:00:00 10.1 6 Sudeste 14 Este 0 -- -- 66
2017-12-05 17:00:00 13 6 Sudeste 16 Este 0 -- -- 52
2017-12-05 16:00:00 14.4 7 Sudeste 15 Sudeste 0 -- -- 49
2017-12-05 15:00:00 14.6 7 Sur 16 Sur 0 -- -- 48
2017-12-05 14:00:00 14.1 5 Sudeste 13 Sudeste 0 -- -- 49
2017-12-05 13:00:00 12.3 3 Norte 13 Sur 0 -- -- 55
2017-12-05 12:00:00 10.9 3 Sudeste 10 Este 0 -- -- 60
2017-12-05 11:00:00 8.5 0 Calma 8 Noroeste 0 -- -- 69
2017-12-05 10:00:00 6 4 Sur 15 Noroeste 0 -- -- 73
2017-12-05 09:00:00 3.1 10 Noroeste 14 Noroeste 0 -- -- 82
2017-12-05 08:00:00 1.6 5 Oeste 14 Noroeste 0 -- -- 81
2017-12-05 07:00:00 1.8 10 Noroeste 13 Noroeste 0 -- -- 79
2017-12-05 06:00:00 1.4 5 Noroeste 9 Noroeste 0 -- -- 80
2017-12-05 05:00:00 1.4 7 Noroeste 9 Noroeste 0 -- -- 81
2017-12-05 04:00:00 2.1 5 Noroeste 9 Noroeste 0 -- -- 79
2017-12-05 03:00:00 2.8 12 Norte 16 Norte 0 -- -- 75
2017-12-05 02:00:00 2.9 10 Noroeste 15 Noroeste 0 -- -- 78
2017-12-05 01:00:00 2.2 9 Noroeste 12 Noroeste 0 -- -- 83
2017-12-05 00:00:00 2.6 3 Noroeste 8 Noroeste 0 -- -- 84
2017-12-04 23:00:00 3.7 3 Oeste 15 Norte 0 -- -- 80
2017-12-04 22:00:00 4.6 10 Norte 15 Norte 0 -- -- 80
2017-12-04 21:00:00 4.8 12 Norte 14 Norte 0 -- -- 79
2017-12-04 20:00:00 5 8 Norte 10 Nordeste 0 -- -- 79
2017-12-04 19:00:00 6.4 5 Nordeste 12 Este 0 -- -- 72
2017-12-04 18:00:00 8.6 8 Sudeste 17 Este 0 -- -- 60
2017-12-04 17:00:00 11.8 12 Sudeste 18 Sudeste 0 -- -- 42
2017-12-04 16:00:00 13.2 8 Sudeste 16 Sudeste 0 -- -- 37
2017-12-04 15:00:00 12.7 8 Este 20 Este 0 -- -- 37
2017-12-04 14:00:00 12.8 6 Sudeste 15 Sudeste 0 -- -- 34
2017-12-04 13:00:00 12.5 6 Sudeste 15 Este 0 -- -- 36
2017-12-04 12:00:00 11 6 Este 13 Este 0 -- -- 41
2017-12-04 11:00:00 8 3 Sudoeste 7 Sudoeste 0 -- -- 41
2017-12-04 10:00:00 4.4 4 Sudoeste 10 Norte 0 -- -- 55
2017-12-04 09:00:00 1.1 5 Noroeste 13 Norte 0 -- -- 62
2017-12-04 08:00:00 1.3 9 Noroeste 13 Noroeste 0 -- -- 59
2017-12-04 07:00:00 1.2 9 Noroeste 12 Noroeste 0 -- -- 60
2017-12-04 06:00:00 1.2 6 Noroeste 12 Noroeste 0 -- -- 59
2017-12-04 05:00:00 1.1 7 Norte 13 Norte 0 -- -- 61
2017-12-04 04:00:00 1.7 9 Norte 11 Noroeste 0 -- -- 57
2017-12-04 03:00:00 1.9 9 Noroeste 11 Noroeste 0 -- -- 58
2017-12-04 02:00:00 1.3 4 Oeste 15 Noroeste 0 -- -- 62
2017-12-04 01:00:00 2.7 13 Noroeste 16 Norte 0 -- -- 56
2017-12-04 00:00:00 2.4 8 Norte 11 Norte 0 -- -- 56
2017-12-03 23:00:00 1.8 6 Oeste 11 Norte 0 -- -- 62
2017-12-03 22:00:00 2.6 6 Noroeste 14 Noroeste 0 -- -- 60
2017-12-03 21:00:00 4.5 13 Norte 16 Norte 0 -- -- 52
2017-12-03 20:00:00 4.4 9 Norte 13 Nordeste 0 -- -- 52
2017-12-03 19:00:00 5.3 9 Nordeste 17 Nordeste 0 -- -- 49
2017-12-03 18:00:00 8 9 Este 17 Este 0 -- -- 39
2017-12-03 17:00:00 12.6 11 Sudeste 18 Sudeste 0 -- -- 29
2017-12-03 16:00:00 14.5 5 Sudoeste 16 Sudoeste 0 -- -- 25
2017-12-03 15:00:00 14.1 9 Sudoeste 21 Sudoeste 0 -- -- 23
2017-12-03 14:00:00 13.7 12 Sudoeste 25 Sudoeste 0 -- -- 25
2017-12-03 13:00:00 11.8 20 Sudoeste 30 Sudoeste 0 -- -- 32
2017-12-03 12:00:00 10.1 18 Sudoeste 30 Sudoeste 0 -- -- 34
2017-12-03 11:00:00 7.5 19 Sudoeste 27 Sudoeste 0 -- -- 44
2017-12-03 10:00:00 4.7 18 Oeste 31 Oeste 0 -- -- 51
2017-12-03 09:00:00 2.9 18 Oeste 35 Oeste 0 -- -- 55
2017-12-03 08:00:00 2.4 21 Oeste 42 Oeste 0 -- -- 58
2017-12-03 07:00:00 2.6 27 Oeste 35 Oeste 0 -- -- 58
2017-12-03 06:00:00 3.1 19 Oeste 41 Oeste 0 -- -- 54
2017-12-03 05:00:00 3.7 28 Oeste 47 Oeste 0 -- -- 56
2017-12-03 04:00:00 4.1 33 Oeste 49 Oeste 0 -- -- 56
2017-12-03 03:00:00 4.4 19 Oeste 42 Oeste 0 -- -- 55
2017-12-03 02:00:00 4.7 15 Oeste 42 Oeste 0 -- -- 53
2017-12-03 01:00:00 4.8 27 Oeste 44 Oeste 0 -- -- 53
2017-12-03 00:00:00 4.8 26 Oeste 42 Oeste 0 -- -- 55
2017-12-02 23:00:00 4.7 23 Oeste 33 Oeste 0 -- -- 55
2017-12-02 22:00:00 4.7 22 Oeste 31 Oeste 0 -- -- 56
2017-12-02 21:00:00 4.7 17 Oeste 28 Oeste 0 -- -- 56
2017-12-02 20:00:00 5 17 Oeste 30 Oeste 0 -- -- 56
2017-12-02 19:00:00 6.3 19 Oeste 35 Noroeste 0 -- -- 44
2017-12-02 18:00:00 7.9 23 Noroeste 37 Noroeste 0 -- -- 39
2017-12-02 17:00:00 10.4 26 Oeste 39 Oeste 0 -- -- 38
2017-12-02 16:00:00 11.7 21 Noroeste 41 Oeste 0 -- -- 35
2017-12-02 15:00:00 11.8 24 Noroeste 41 Oeste 0 -- -- 34
2017-12-02 14:00:00 11.5 22 Noroeste 37 Oeste 0 -- -- 34
2017-12-02 13:00:00 10.7 22 Noroeste 33 Oeste 0 -- -- 35
2017-12-02 12:00:00 9.4 19 Noroeste 35 Sudoeste 0 -- -- 34
2017-12-02 11:00:00 6.6 26 Oeste 43 Sudoeste 0 -- -- 45
2017-12-02 10:00:00 4.6 30 Oeste 43 Sudoeste 0 -- -- 47
2017-12-02 09:00:00 2.3 13 Oeste 21 Oeste 0 -- -- 53
2017-12-02 08:00:00 1.3 10 Oeste 24 Oeste 0 -- -- 60
2017-12-02 07:00:00 2.2 18 Oeste 37 Oeste 0 -- -- 61
2017-12-02 06:00:00 2.5 27 Oeste 34 Oeste 0 -- -- 61
2017-12-02 05:00:00 2.8 21 Oeste 35 Oeste 0 -- -- 63
2017-12-02 04:00:00 3.4 24 Oeste 32 Noroeste 0 -- -- 67
2017-12-02 03:00:00 3.7 18 Noroeste 30 Noroeste 0 -- -- 67
2017-12-02 02:00:00 4 22 Oeste 30 Oeste 0 -- -- 65
2017-12-02 01:00:00 4.1 19 Oeste 26 Oeste 0 -- -- 65
2017-12-02 00:00:00 4.9 20 Oeste 35 Oeste 0 -- -- 60
2017-12-01 23:00:00 5.3 23 Oeste 31 Noroeste 0 -- -- 60
2017-12-01 22:00:00 6.7 20 Noroeste 31 Noroeste 0 -- -- 47
2017-12-01 21:00:00 7 14 Noroeste 38 Noroeste 0 -- -- 55
2017-12-01 20:00:00 7.4 23 Noroeste 45 Oeste 0 -- -- 56
2017-12-01 19:00:00 8.2 26 Oeste 39 Oeste 0 -- -- 48
2017-12-01 18:00:00 9 19 Oeste 45 Oeste 0 -- -- 45
2017-12-01 17:00:00 11.5 28 Oeste 49 Oeste 0 -- -- 39
2017-12-01 16:00:00 12.2 37 Oeste 64 Oeste 0 -- -- 34
2017-12-01 15:00:00 12.6 37 Noroeste 55 Oeste 0 -- -- 35
2017-12-01 14:00:00 12.3 31 Oeste 63 Oeste 0 -- -- 33
2017-12-01 13:00:00 12.1 33 Noroeste 50 Noroeste 0 -- -- 34
2017-12-01 12:00:00 10.5 31 Noroeste 45 Noroeste 0 -- -- 42
2017-12-01 11:00:00 8.5 26 Oeste 34 Oeste 0 -- -- 52
2017-12-01 10:00:00 6.5 29 Oeste 55 Oeste 0 -- -- 55
2017-12-01 09:00:00 4.4 14 Oeste 27 Oeste 0 -- -- 62
2017-12-01 08:00:00 3.5 20 Oeste 26 Oeste 0 -- -- 66
2017-12-01 07:00:00 2.2 7 Noroeste 34 Oeste 0 -- -- 70
2017-12-01 06:00:00 2.5 15 Oeste 22 Oeste 0 -- -- 72
2017-12-01 05:00:00 2.8 10 Noroeste 34 Oeste 0 -- -- 71
2017-12-01 04:00:00 4.1 23 Oeste 30 Oeste 0 -- -- 67
2017-12-01 03:00:00 4.2 17 Oeste 30 Oeste 0 -- -- 68
2017-12-01 02:00:00 3.8 9 Noroeste 26 Oeste 0 -- -- 70
2017-12-01 01:00:00 3.1 4 Oeste 19 Sudoeste 0 -- -- 74
2017-12-01 00:00:00 3.3 11 Noroeste 14 Noroeste 0 -- -- 74
2017-11-30 23:00:00 3.9 9 Noroeste 18 Oeste 0 -- -- 67
2017-11-30 22:00:00 4.9 7 Oeste 18 Oeste 0 -- -- 70
2017-11-30 21:00:00 5.6 8 Noroeste 16 Norte 0 -- -- 66
2017-11-30 20:00:00 6.4 13 Norte 18 Norte 0 -- -- 67
2017-11-30 19:00:00 7 7 Norte 11 Norte 0 -- -- 89
2017-11-30 18:00:00 8.2 4 Este 10 Sur 0 -- -- 85
2017-11-30 17:00:00 9.4 5 Sur 11 Sudoeste 0 -- -- 83
2017-11-30 16:00:00 9.2 3 Sudoeste 11 Sudoeste 0 -- -- 83
2017-11-30 15:00:00 9.2 5 Sudoeste 10 Sudoeste 0 -- -- 81
2017-11-30 14:00:00 9.2 8 Sur 13 Sur 0 -- -- 84
2017-11-30 13:00:00 9.6 5 Sudoeste 9 Sur 0 -- -- 87
2017-11-30 12:00:00 9.7 4 Norte 11 Norte 0 -- -- 79
2017-11-30 11:00:00 9.7 7 Sudeste 13 Sudeste 0 -- -- 97
2017-11-30 10:00:00 8.7 0 Calma 9 Oeste 1 -- -- 96
2017-11-30 09:00:00 8.7 4 Sudoeste 9 Sudeste 0.4 -- -- 96
2017-11-30 08:00:00 8.7 6 Sudeste 15 Este 0.2 -- -- 94
2017-11-30 07:00:00 9.2 6 Sudeste 12 Sudeste 0.2 -- -- 94
2017-11-30 06:00:00 9.7 6 Sur 13 Sudeste 0 -- -- 92
2017-11-30 05:00:00 10 6 Este 14 Este 0 -- -- 92
2017-11-30 04:00:00 11 2 Sudeste 5 Sudeste 0 -- -- 96
2017-11-30 03:00:00 10.9 2 Sudeste 5 Este 0 -- -- 96
2017-11-30 02:00:00 11 0 Calma 4 Sudeste 0 -- -- 96
2017-11-30 01:00:00 10.8 0 Calma 7 Este 0 -- -- 96
2017-11-30 00:00:00 10.7 2 Este 8 Este 0 -- -- 97
2017-11-29 23:00:00 11 0 Calma 9 Sudeste 0 -- -- 97
2017-11-29 22:00:00 11 0 Calma 9 Sur 0 -- -- 96
2017-11-29 21:00:00 11.6 2 Oeste 13 Sudeste 0.2 -- -- 96
2017-11-29 20:00:00 11.9 5 Sur 10 Sudeste 0.6 -- -- 96
2017-11-29 19:00:00 12.2 4 Sudeste 9 Sudeste 0.2 -- -- 95
2017-11-29 18:00:00 12.4 4 Sudeste 14 Este 1.8 -- -- 95
2017-11-29 17:00:00 12.7 3 Sur 10 Sur 1.4 -- -- 94
2017-11-29 16:00:00 13.8 4 Sudeste 22 Sudeste 2.4 -- -- 92
2017-11-29 15:00:00 15.8 6 Sur 18 Oeste 0.8 -- -- 83
2017-11-29 14:00:00 16.7 21 Noroeste 39 Noroeste 0 -- -- 76
2017-11-29 13:00:00 19.9 22 Oeste 49 Oeste 0 -- -- 58
2017-11-29 12:00:00 19.3 15 Noroeste 39 Oeste 0 -- -- 62
2017-11-29 11:00:00 15.9 6 Sudeste 14 Sudeste 0 -- -- 76
2017-11-29 10:00:00 13.5 6 Este 31 Oeste 0 -- -- 80
2017-11-29 09:00:00 12.7 17 Oeste 51 Sudoeste 0.4 -- -- 84
2017-11-29 08:00:00 12.8 13 Oeste 27 Noroeste 0.2 -- -- 89
2017-11-29 07:00:00 13 7 Oeste 40 Oeste 0.6 -- -- 87
2017-11-29 06:00:00 13.8 21 Noroeste 42 Oeste 0.2 -- -- 79
2017-11-29 05:00:00 12.6 3 Norte 22 Sudoeste 0.6 -- -- 83
2017-11-29 04:00:00 13 6 Oeste 14 Oeste 0 -- -- 76
2017-11-29 03:00:00 13.1 5 Norte 12 Norte 0 -- -- 71
2017-11-29 02:00:00 13 4 Sudeste 13 Sur 0 -- -- 75
2017-11-29 01:00:00 13.4 5 Noroeste 13 Noroeste 0 -- -- 73
2017-11-29 00:00:00 13 5 Norte 10 Norte 0 -- -- 75
2017-11-28 23:00:00 12.2 7 Noroeste 10 Noroeste 0 -- -- 73
2017-11-28 22:00:00 12.1 4 Noroeste 9 Noroeste 0 -- -- 74
2017-11-28 21:00:00 12.5 0 Calma 9 Norte 0 -- -- 73
2017-11-28 20:00:00 13.1 6 Norte 9 Norte 0 -- -- 74
2017-11-28 19:00:00 13.5 3 Sur 4 Sur 0 -- -- 71
2017-11-28 18:00:00 14.3 3 Sudoeste 5 Sudoeste 0 -- -- 68
2017-11-28 17:00:00 15.3 2 Sur 7 Sudeste 0 -- -- 65
2017-11-28 16:00:00 16 0 Calma 6 Este 0 -- -- 61
2017-11-28 15:00:00 15.9 4 Sudeste 9 Sudeste 0 -- -- 60
2017-11-28 14:00:00 16 3 Sudoeste 8 Sur 0 -- -- 61
2017-11-28 13:00:00 15.1 3 Sur 8 Sur 0 -- -- 66
2017-11-28 12:00:00 14.3 2 Sudeste 4 Sudeste 0 -- -- 71
2017-11-28 11:00:00 13.3 0 Calma 6 Sur 0 -- -- 76
2017-11-28 10:00:00 11.5 2 Nordeste 6 Este 0 -- -- 86
2017-11-28 09:00:00 10 0 Calma 10 Norte 0 -- -- 89
2017-11-28 08:00:00 9.7 0 Calma 5 Norte 0 -- -- 89
2017-11-28 07:00:00 9.6 5 Nordeste 10 Norte 0 -- -- 92
2017-11-28 06:00:00 9.5 3 Norte 8 Nordeste 0 -- -- 90
2017-11-28 05:00:00 9.9 2 Norte 8 Nordeste 0 -- -- 89
2017-11-28 04:00:00 10.3 3 Norte 5 Norte 0 -- -- 90
2017-11-28 03:00:00 10.6 3 Noroeste 4 Oeste 0 -- -- 89
2017-11-28 02:00:00 11.5 0 Calma 3 Noroeste 0 -- -- 85
2017-11-28 01:00:00 12.2 0 Calma 4 Este 0 -- -- 83
2017-11-28 00:00:00 12.5 2 Este 5 Este 0 -- -- 83
2017-11-27 23:00:00 12.6 4 Este 8 Este 0 -- -- 83
2017-11-27 22:00:00 12.6 5 Este 7 Este 0 -- -- 84
2017-11-27 21:00:00 12.7 3 Este 9 Este 0 -- -- 83
2017-11-27 20:00:00 12.8 5 Este 13 Sudeste 0 -- -- 83
2017-11-27 19:00:00 12.9 6 Sudeste 16 Sudeste 0 -- -- 79
2017-11-27 18:00:00 13.5 9 Sudeste 18 Este 0 -- -- 74
2017-11-27 17:00:00 14.8 12 Sudeste 18 Sudeste 0 -- -- 69
2017-11-27 16:00:00 15.9 4 Sudeste 14 Sudeste 0 -- -- 62
2017-11-27 15:00:00 15.6 8 Sudeste 14 Sudeste 0 -- -- 63
2017-11-27 14:00:00 15.1 5 Sudeste 15 Este 0 -- -- 67
2017-11-27 13:00:00 14.2 9 Este 15 Sudeste 0 -- -- 70
2017-11-27 12:00:00 14.1 2 Sudeste 12 Sudeste 0 -- -- 71
2017-11-27 11:00:00 13.7 6 Sudeste 12 Este 0 -- -- 74
2017-11-27 10:00:00 12.6 2 Este 5 Este 0 -- -- 77
2017-11-27 09:00:00 12 0 Calma 3 Sur 0 -- -- 79
2017-11-27 08:00:00 11.9 0 Calma 3 Sur 0 -- -- 79
2017-11-27 07:00:00 11.8 0 Calma 3 Oeste 0 -- -- 80
2017-11-27 06:00:00 11.9 2 Sudoeste 5 Sur 0 -- -- 79
2017-11-27 05:00:00 12.2 4 Sudoeste 5 Sudoeste 0 -- -- 78
2017-11-27 04:00:00 12.4 2 Sudeste 6 Sudeste 0 -- -- 78
2017-11-27 03:00:00 12.5 3 Sudeste 6 Este 0 -- -- 78
2017-11-27 02:00:00 12.7 3 Sudeste 8 Este 0 -- -- 78
2017-11-27 01:00:00 12.7 3 Este 9 Sudeste 0 -- -- 79
2017-11-27 00:00:00 12.9 4 Sudeste 8 Sudeste 0 -- -- 80
2017-11-26 23:00:00 13 4 Sur 7 Sur 0 -- -- 80
2017-11-26 22:00:00 13 3 Sudeste 6 Sudeste 0 -- -- 77
2017-11-26 21:00:00 13.1 4 Sudeste 9 Sudeste 0 -- -- 77
2017-11-26 20:00:00 13.3 4 Sudeste 12 Sudeste 0 -- -- 76
2017-11-26 19:00:00 13.5 7 Sudeste 15 Sudeste 0 -- -- 76
2017-11-26 18:00:00 14.3 10 Sudeste 21 Sudeste 0 -- -- 73
2017-11-26 17:00:00 16.2 13 Sudeste 23 Sudeste 0 -- -- 65
2017-11-26 16:00:00 17.7 11 Sudeste 23 Sudeste 0 -- -- 58
2017-11-26 15:00:00 18.3 10 Sudeste 22 Sudeste 0 -- -- 55
2017-11-26 14:00:00 19 10 Sudeste 19 Sudeste 0 -- -- 52
2017-11-26 13:00:00 18.7 10 Sudeste 23 Sudeste 0 -- -- 52
2017-11-26 12:00:00 17.7 11 Sudeste 19 Sudeste 0 -- -- 56
2017-11-26 11:00:00 16.2 5 Sur 12 Sur 0 -- -- 61
2017-11-26 10:00:00 14 4 Sur 9 Sur 0 -- -- 56
2017-11-26 09:00:00 11.7 5 Nordeste 8 Nordeste 0 -- -- 59
2017-11-26 08:00:00 11.1 3 Noroeste 8 Oeste 0 -- -- 58
2017-11-26 07:00:00 12.9 0 Calma 9 Nordeste 0 -- -- 50
2017-11-26 06:00:00 14.4 6 Este 10 Este 0 -- -- 45
2017-11-26 05:00:00 14.7 4 Este 10 Este 0 -- -- 43
2017-11-26 04:00:00 15.6 4 Nordeste 9 Sudeste 0 -- -- 38
2017-11-26 03:00:00 15.9 3 Este 8 Sudeste 0 -- -- 36
2017-11-26 02:00:00 17.4 7 Sur 22 Noroeste 0 -- -- 31
2017-11-26 01:00:00 16.9 13 Oeste 39 Sudoeste 0 -- -- 32
2017-11-26 00:00:00 18 29 Oeste 39 Oeste 0 -- -- 30
2017-11-25 23:00:00 17.4 12 Oeste 24 Oeste 0 -- -- 31
2017-11-25 22:00:00 17.7 12 Oeste 27 Oeste 0 -- -- 31
2017-11-25 21:00:00 18.4 17 Oeste 31 Oeste 0 -- -- 30
2017-11-25 20:00:00 18.9 24 Oeste 33 Noroeste 0 -- -- 29
2017-11-25 19:00:00 19 19 Oeste 27 Oeste 0 -- -- 29
2017-11-25 18:00:00 20.6 22 Oeste 32 Oeste 0 -- -- 27
2017-11-25 17:00:00 21.7 23 Noroeste 41 Noroeste 0 -- -- 25
2017-11-25 16:00:00 22.7 27 Noroeste 47 Noroeste 0 -- -- 25
2017-11-25 15:00:00 22.9 3 Sudeste 7 Este 0 -- -- 23
2017-11-25 14:00:00 23.1 4 Sudeste 7 Sudeste 0 -- -- 23
2017-11-25 13:00:00 20.7 2 Norte 3 Noroeste 0 -- -- 26
2017-11-25 12:00:00 21.3 2 Oeste 12 Sur 0 -- -- 25
2017-11-25 11:00:00 22.1 6 Sudoeste 13 Sudoeste 0 -- -- 24
2017-11-25 10:00:00 19.1 4 Sur 10 Oeste 0 -- -- 30
2017-11-25 09:00:00 15.6 8 Noroeste 13 Oeste 0 -- -- 34
2017-11-25 08:00:00 14.5 10 Noroeste 14 Noroeste 0 -- -- 34
2017-11-25 07:00:00 13.3 11 Noroeste 13 Noroeste 0 -- -- 37
2017-11-25 06:00:00 13 11 Norte 20 Noroeste 0 -- -- 36
2017-11-25 05:00:00 14.4 13 Noroeste 21 Noroeste 0 -- -- 34
2017-11-25 04:00:00 14.1 15 Noroeste 18 Noroeste 0 -- -- 35
2017-11-25 03:00:00 14.3 13 Noroeste 17 Noroeste 0 -- -- 34
2017-11-25 02:00:00 13.3 9 Noroeste 14 Noroeste 0 -- -- 35
2017-11-25 01:00:00 13.4 13 Norte 16 Norte 0 -- -- 35
2017-11-25 00:00:00 13.7 7 Noroeste 13 Norte 0 -- -- 35
2017-11-24 23:00:00 13.1 8 Norte 13 Norte 0 -- -- 36
2017-11-24 22:00:00 13.5 10 Norte 15 Norte 0 -- -- 38
2017-11-24 21:00:00 14 12 Norte 14 Norte 0 -- -- 38
2017-11-24 20:00:00 14.9 6 Noroeste 9 Noroeste 0 -- -- 41
2017-11-24 19:00:00 16.6 5 Norte 6 Norte 0 -- -- 39
2017-11-24 18:00:00 18.7 5 Este 13 Este 0 -- -- 39
2017-11-24 17:00:00 21 6 Este 22 Este 0 -- -- 33
2017-11-24 16:00:00 23.4 12 Este 24 Este 0 -- -- 27
2017-11-24 15:00:00 25.2 13 Sudeste 23 Este 0 -- -- 22
2017-11-24 14:00:00 25.8 10 Sudeste 20 Sudeste 0 -- -- 20
2017-11-24 13:00:00 24.6 8 Sudeste 14 Sudeste 0 -- -- 21
2017-11-24 12:00:00 22.7 6 Sur 13 Sur 0 -- -- 25
2017-11-24 11:00:00 20 5 Sur 7 Sur 0 -- -- 29
2017-11-24 10:00:00 16 2 Norte 11 Noroeste 0 -- -- 35
2017-11-24 09:00:00 12.4 9 Noroeste 16 Norte 0 -- -- 39
2017-11-24 08:00:00 11.2 5 Noroeste 15 Norte 0 -- -- 41
2017-11-24 07:00:00 10.9 5 Norte 13 Norte 0 -- -- 42
2017-11-24 06:00:00 12.2 12 Norte 14 Norte 0 -- -- 39
2017-11-24 05:00:00 12.4 6 Noroeste 18 Noroeste 0 -- -- 38
2017-11-24 04:00:00 12.6 12 Norte 15 Norte 0 -- -- 37
2017-11-24 03:00:00 12.6 9 Norte 11 Norte 0 -- -- 38
2017-11-24 02:00:00 13.5 9 Noroeste 13 Norte 0 -- -- 36
2017-11-24 01:00:00 13.3 5 Norte 13 Norte 0 -- -- 36
2017-11-24 00:00:00 13.1 7 Noroeste 11 Norte 0 -- -- 37
2017-11-23 23:00:00 13.6 8 Norte 13 Norte 0 -- -- 35
2017-11-23 22:00:00 13.8 8 Norte 14 Norte 0 -- -- 35
2017-11-23 21:00:00 13.3 10 Norte 13 Noroeste 0 -- -- 36
2017-11-23 20:00:00 13.6 10 Norte 13 Noroeste 0 -- -- 35
2017-11-23 19:00:00 15.7 6 Norte 9 Este 0 -- -- 33
2017-11-23 18:00:00 17.9 6 Este 14 Este 0 -- -- 33
2017-11-23 17:00:00 20.7 8 Este 19 Este 0 -- -- 30
2017-11-23 16:00:00 22.2 15 Este 22 Este 0 -- -- 23
2017-11-23 15:00:00 23.5 15 Este 23 Este 0 -- -- 22
2017-11-23 14:00:00 25 10 Sudeste 18 Sudeste 0 -- -- 19
2017-11-23 13:00:00 24 8 Sudeste 14 Sudeste 0 -- -- 20
2017-11-23 12:00:00 22.4 7 Sudeste 12 Sudeste 0 -- -- 23
2017-11-23 11:00:00 19.7 4 Sur 6 Sur 0 -- -- 27
2017-11-23 10:00:00 15.4 2 Noroeste 12 Noroeste 0 -- -- 34
2017-11-23 09:00:00 11.6 8 Norte 13 Noroeste 0 -- -- 36
2017-11-23 08:00:00 9.7 10 Noroeste 17 Noroeste 0 -- -- 39
2017-11-23 07:00:00 10.5 10 Norte 18 Noroeste 0 -- -- 37
2017-11-23 06:00:00 9.9 10 Noroeste 14 Noroeste 0 -- -- 38
2017-11-23 05:00:00 10.5 10 Noroeste 17 Noroeste 0 -- -- 36
2017-11-23 04:00:00 10.5 12 Noroeste 15 Norte 0 -- -- 36
2017-11-23 03:00:00 10.4 8 Noroeste 24 Noroeste 0 -- -- 38
2017-11-23 02:00:00 9.5 5 Noroeste 19 Noroeste 0 -- -- 43
2017-11-23 01:00:00 10.1 11 Noroeste 14 Noroeste 0 -- -- 42
2017-11-23 00:00:00 8.9 4 Noroeste 13 Norte 0 -- -- 50
2017-11-22 23:00:00 8.8 10 Norte 13 Norte 0 -- -- 57
2017-11-22 22:00:00 9.3 10 Norte 13 Noroeste 0 -- -- 64
2017-11-22 21:00:00 10.2 8 Noroeste 9 Noroeste 0 -- -- 64
2017-11-22 20:00:00 11 6 Noroeste 9 Noroeste 0 -- -- 64
2017-11-22 19:00:00 12.8 3 Sudeste 9 Este 0 -- -- 68
2017-11-22 18:00:00 14.7 8 Este 20 Este 0 -- -- 56
2017-11-22 17:00:00 18.8 11 Sudeste 17 Sudeste 0 -- -- 40
2017-11-22 16:00:00 20.9 8 Sudeste 18 Sudeste 0 -- -- 35
2017-11-22 15:00:00 21.3 10 Este 20 Sudeste 0 -- -- 29
2017-11-22 14:00:00 21.4 9 Sudeste 17 Sudeste 0 -- -- 25
2017-11-22 13:00:00 20.5 8 Sur 17 Sur 0 -- -- 26
2017-11-22 12:00:00 18.9 5 Este 10 Este 0 -- -- 28
2017-11-22 11:00:00 16.1 4 Sur 7 Sur 0 -- -- 34
2017-11-22 10:00:00 13.1 2 Sudoeste 11 Norte 0 -- -- 39
2017-11-22 09:00:00 9.2 12 Norte 14 Norte 0 -- -- 41
2017-11-22 08:00:00 7.7 8 Noroeste 13 Norte 0 -- -- 46
2017-11-22 07:00:00 8.1 10 Norte 14 Norte 0 -- -- 44
2017-11-22 06:00:00 8.6 10 Norte 13 Norte 0 -- -- 43
2017-11-22 05:00:00 9.1 10 Norte 17 Norte 0 -- -- 43
2017-11-22 04:00:00 9.5 9 Norte 14 Norte 0 -- -- 42
2017-11-22 03:00:00 9.9 9 Norte 15 Norte 0 -- -- 40
2017-11-22 02:00:00 9.7 10 Norte 13 Noroeste 0 -- -- 42
2017-11-22 01:00:00 9.6 9 Noroeste 13 Noroeste 0 -- -- 45
2017-11-22 00:00:00 10.1 7 Norte 14 Norte 0 -- -- 44
2017-11-21 23:00:00 10.8 11 Norte 14 Norte 0 -- -- 45
2017-11-21 22:00:00 10.8 10 Norte 14 Norte 0 -- -- 50
2017-11-21 21:00:00 11.1 8 Noroeste 12 Noroeste 0 -- -- 53
2017-11-21 20:00:00 11.9 5 Noroeste 8 Noroeste 0 -- -- 58
2017-11-21 19:00:00 13.3 2 Nordeste 9 Este 0 -- -- 60
2017-11-21 18:00:00 16.2 5 Sudeste 16 Este 0 -- -- 51
2017-11-21 17:00:00 19.5 11 Este 20 Sudeste 0 -- -- 42
2017-11-21 16:00:00 21 15 Este 22 Este 0 -- -- 36
2017-11-21 15:00:00 22 14 Este 23 Este 0 -- -- 29
2017-11-21 14:00:00 22.9 14 Sudeste 22 Este 0 -- -- 25
2017-11-21 13:00:00 22 12 Este 18 Este 0 -- -- 25
2017-11-21 12:00:00 21.3 5 Sudeste 10 Sudeste 0 -- -- 26
2017-11-21 11:00:00 18.5 5 Sudeste 9 Sudeste 0 -- -- 31
2017-11-21 10:00:00 14 4 Sudoeste 8 Noroeste 0 -- -- 39
2017-11-21 09:00:00 10.3 6 Noroeste 12 Norte 0 -- -- 47
2017-11-21 08:00:00 9.7 10 Norte 14 Norte 0 -- -- 44
2017-11-21 07:00:00 9.5 10 Norte 14 Norte 0 -- -- 48
2017-11-21 06:00:00 10 12 Norte 17 Norte 0 -- -- 47
2017-11-21 05:00:00 9.3 9 Noroeste 17 Norte 0 -- -- 50
2017-11-21 04:00:00 10.3 13 Norte 16 Norte 0 -- -- 49
2017-11-21 03:00:00 9.3 10 Norte 13 Norte 0 -- -- 56
2017-11-21 02:00:00 9.9 7 Norte 13 Norte 0 -- -- 56
2017-11-21 01:00:00 10.1 9 Noroeste 12 Norte 0 -- -- 59
2017-11-21 00:00:00 10 8 Norte 12 Norte 0 -- -- 60
2017-11-20 23:00:00 10.3 6 Norte 12 Norte 0 -- -- 64
2017-11-20 22:00:00 10.3 6 Nordeste 7 Nordeste 0 -- -- 76
2017-11-20 21:00:00 11.5 4 Nordeste 6 Noroeste 0 -- -- 78
2017-11-20 20:00:00 12.5 4 Noroeste 6 Noroeste 0 -- -- 80
2017-11-20 19:00:00 14.1 3 Oeste 4 Oeste 0 -- -- 74
2017-11-20 18:00:00 16.6 3 Sudeste 13 Este 0 -- -- 62
2017-11-20 17:00:00 19.2 8 Este 20 Este 0 -- -- 51
2017-11-20 16:00:00 20.3 13 Este 22 Este 0 -- -- 48
2017-11-20 15:00:00 21.7 14 Sudeste 22 Este 0 -- -- 39
2017-11-20 14:00:00 22.3 11 Sudeste 18 Sudeste 0 -- -- 32
2017-11-20 13:00:00 20.7 4 Sudeste 10 Sudeste 0 -- -- 32
2017-11-20 12:00:00 18.9 5 Sur 10 Sur 0 -- -- 37
2017-11-20 11:00:00 16.6 3 Sudeste 6 Sudeste 0 -- -- 45
2017-11-20 10:00:00 13.5 4 Sudeste 7 Sudeste 0 -- -- 49
2017-11-20 09:00:00 10 4 Norte 10 Norte 0 -- -- 53
2017-11-20 08:00:00 8.8 6 Norte 17 Norte 0 -- -- 55
2017-11-20 07:00:00 8.7 11 Norte 14 Norte 0 -- -- 54
2017-11-20 06:00:00 8.5 6 Noroeste 15 Norte 0 -- -- 57
2017-11-20 05:00:00 8.4 10 Noroeste 13 Norte 0 -- -- 59
2017-11-20 04:00:00 9.8 12 Norte 15 Norte 0 -- -- 56
2017-11-20 03:00:00 9.1 6 Noroeste 13 Noroeste 0 -- -- 62
2017-11-20 02:00:00 9.5 12 Norte 15 Norte 0 -- -- 64
2017-11-20 01:00:00 9.3 7 Noroeste 14 Norte 0 -- -- 68
2017-11-20 00:00:00 9.5 10 Norte 14 Norte 0 -- -- 67
2017-11-19 23:00:00 9.8 5 Norte 11 Norte 0 -- -- 71
2017-11-19 22:00:00 10 8 Norte 12 Norte 0 -- -- 75
2017-11-19 21:00:00 10.8 8 Norte 10 Noroeste 0 -- -- 75
2017-11-19 20:00:00 11.6 7 Noroeste 9 Noroeste 0 -- -- 76
2017-11-19 19:00:00 12.9 4 Este 13 Este 0 -- -- 76
2017-11-19 18:00:00 15.4 8 Este 13 Este 0 -- -- 62
2017-11-19 17:00:00 18.6 7 Sudeste 20 Sudeste 0 -- -- 50
2017-11-19 16:00:00 19.9 12 Sudeste 19 Sudeste 0 -- -- 44
2017-11-19 15:00:00 20.3 10 Sudeste 17 Sudeste 0 -- -- 39
2017-11-19 14:00:00 19.7 8 Este 17 Sudeste 0 -- -- 39
2017-11-19 13:00:00 18.7 6 Sudeste 13 Sudeste 0 -- -- 47
2017-11-19 12:00:00 17.3 4 Sudeste 10 Este 0 -- -- 47
2017-11-19 11:00:00 15.1 3 Sur 6 Sur 0 -- -- 51
2017-11-19 10:00:00 11.6 2 Sur 7 Norte 0 -- -- 55
2017-11-19 09:00:00 8.6 6 Norte 12 Norte 0 -- -- 58
2017-11-19 08:00:00 6.2 7 Norte 10 Norte 0 -- -- 67
2017-11-19 07:00:00 7.1 6 Norte 14 Norte 0 -- -- 67
2017-11-19 06:00:00 7.7 7 Norte 13 Norte 0 -- -- 60
2017-11-19 05:00:00 8 8 Norte 12 Nordeste 0 -- -- 60
2017-11-19 04:00:00 7.6 8 Norte 10 Norte 0 -- -- 54
2017-11-19 03:00:00 7.1 3 Noroeste 15 Norte 0 -- -- 59
2017-11-19 02:00:00 8.6 12 Norte 15 Norte 0 -- -- 59
2017-11-19 01:00:00 8.7 7 Norte 9 Noroeste 0 -- -- 73
2017-11-19 00:00:00 8.9 8 Noroeste 11 Norte 0 -- -- 73
2017-11-18 23:00:00 9.3 10 Norte 13 Norte 0 -- -- 79
2017-11-18 22:00:00 9.9 8 Norte 10 Norte 0 -- -- 78
2017-11-18 21:00:00 10.5 6 Noroeste 9 Noroeste 0 -- -- 83
2017-11-18 20:00:00 11.4 0 Calma 9 Este 0 -- -- 84
2017-11-18 19:00:00 12.4 6 Este 14 Este 0 -- -- 82
2017-11-18 18:00:00 14.6 9 Sudeste 17 Sudeste 0 -- -- 68
2017-11-18 17:00:00 17.6 12 Este 22 Este 0 -- -- 55
2017-11-18 16:00:00 19.5 15 Este 23 Este 0 -- -- 44
2017-11-18 15:00:00 20.9 13 Este 20 Sudeste 0 -- -- 33
2017-11-18 14:00:00 20.9 10 Este 19 Sudeste 0 -- -- 31
2017-11-18 13:00:00 20.6 7 Sur 15 Sudeste 0 -- -- 34
2017-11-18 12:00:00 18.8 4 Sudeste 10 Sudeste 0 -- -- 38
2017-11-18 11:00:00 16.2 4 Sudoeste 8 Sur 0 -- -- 44
2017-11-18 10:00:00 12.6 4 Sudoeste 7 Sudoeste 0 -- -- 50
2017-11-18 09:00:00 9.8 4 Norte 13 Norte 0 -- -- 58
2017-11-18 08:00:00 8 7 Norte 13 Norte 0 -- -- 61
2017-11-18 07:00:00 8.6 8 Norte 14 Norte 0 -- -- 57
2017-11-18 06:00:00 8.7 8 Norte 13 Norte 0 -- -- 55
2017-11-18 05:00:00 8.8 10 Norte 13 Norte 0 -- -- 53
2017-11-18 04:00:00 9.1 10 Norte 16 Norte 0 -- -- 59
2017-11-18 03:00:00 8.7 12 Norte 14 Norte 0 -- -- 68
2017-11-18 02:00:00 9.4 11 Noroeste 15 Norte 0 -- -- 66
2017-11-18 01:00:00 8.8 6 Norte 12 Norte 0 -- -- 74
2017-11-18 00:00:00 8.8 8 Norte 13 Norte 0 -- -- 79
2017-11-17 23:00:00 9 5 Norte 9 Norte 0 -- -- 82
2017-11-17 22:00:00 9.8 6 Noroeste 12 Norte 0 -- -- 82
2017-11-17 21:00:00 10.5 8 Norte 10 Norte 0 -- -- 84
2017-11-17 20:00:00 10.9 5 Norte 7 Este 0 -- -- 85
2017-11-17 19:00:00 12.2 3 Este 12 Este 0 -- -- 80
2017-11-17 18:00:00 13.9 9 Este 22 Sudeste 0 -- -- 71
2017-11-17 17:00:00 16.8 15 Sudeste 23 Sudeste 0 -- -- 61
2017-11-17 16:00:00 18.9 17 Este 23 Sudeste 0 -- -- 51
2017-11-17 15:00:00 20.1 13 Este 21 Este 0 -- -- 43
2017-11-17 14:00:00 20.5 10 Sudeste 18 Sudeste 0 -- -- 38
2017-11-17 13:00:00 19.1 5 Sur 11 Sudeste 0 -- -- 40
2017-11-17 12:00:00 17 5 Sudeste 9 Sudeste 0 -- -- 49
2017-11-17 11:00:00 14.6 4 Sur 8 Sur 0 -- -- 54
2017-11-17 10:00:00 11.8 2 Sudeste 6 Sudeste 0 -- -- 68
2017-11-17 09:00:00 8.1 0 Calma 10 Noroeste 0 -- -- 75
2017-11-17 08:00:00 6.2 7 Noroeste 11 Noroeste 0 -- -- 80
2017-11-17 07:00:00 7.5 7 Norte 13 Norte 0 -- -- 74
2017-11-17 06:00:00 7.1 6 Norte 9 Nordeste 0 -- -- 78
2017-11-17 05:00:00 7.5 5 Norte 10 Noroeste 0 -- -- 76
2017-11-17 04:00:00 7.6 5 Norte 13 Norte 0 -- -- 76
2017-11-17 03:00:00 6.9 5 Noroeste 12 Norte 0 -- -- 80
2017-11-17 02:00:00 8.2 10 Norte 13 Norte 0 -- -- 77
2017-11-17 01:00:00 7.5 4 Norte 11 Norte 0 -- -- 85
2017-11-17 00:00:00 8.6 8 Noroeste 13 Noroeste 0 -- -- 82
2017-11-16 23:00:00 9.5 10 Norte 12 Norte 0 -- -- 84
2017-11-16 22:00:00 11.3 6 Norte 10 Norte 0 -- -- 81
2017-11-16 21:00:00 10.9 5 Norte 8 Norte 0 -- -- 85
2017-11-16 20:00:00 10.2 5 Nordeste 7 Nordeste 0 -- -- 86
2017-11-16 19:00:00 11.8 6 Este 15 Sudeste 0 -- -- 79
2017-11-16 18:00:00 13.7 10 Este 22 Este 0 -- -- 69
2017-11-16 17:00:00 16.9 13 Este 21 Sudeste 0 -- -- 53
2017-11-16 16:00:00 19 14 Sudeste 26 Este 0 -- -- 46
2017-11-16 15:00:00 20.5 13 Este 23 Este 0 -- -- 37
2017-11-16 14:00:00 20.8 12 Sudeste 22 Este 0 -- -- 32
2017-11-16 13:00:00 20.4 7 Sudeste 17 Este 0 -- -- 32
2017-11-16 12:00:00 18.8 6 Sudeste 14 Sudeste 0 -- -- 36
2017-11-16 11:00:00 16.3 3 Sur 8 Sudoeste 0 -- -- 42
2017-11-16 10:00:00 12.4 4 Sudoeste 9 Norte 0 -- -- 46
2017-11-16 09:00:00 8.4 8 Norte 12 Noroeste 0 -- -- 54
2017-11-16 08:00:00 7.3 9 Norte 12 Norte 0 -- -- 54
2017-11-16 07:00:00 7 9 Norte 13 Norte 0 -- -- 53
2017-11-16 06:00:00 7.5 8 Norte 13 Norte 0 -- -- 51
2017-11-16 05:00:00 7.4 8 Norte 11 Norte 0 -- -- 54
2017-11-16 04:00:00 8.3 6 Norte 13 Norte 0 -- -- 52
2017-11-16 03:00:00 8.8 11 Norte 14 Norte 0 -- -- 53
2017-11-16 02:00:00 8.4 8 Norte 11 Norte 0 -- -- 55
2017-11-16 01:00:00 8.5 8 Noroeste 12 Noroeste 0 -- -- 49
2017-11-16 00:00:00 7.8 7 Norte 12 Norte 0 -- -- 60
2017-11-15 23:00:00 8.6 9 Noroeste 14 Norte 0 -- -- 76
2017-11-15 22:00:00 8.5 10 Norte 13 Norte 0 -- -- 80
2017-11-15 21:00:00 9.1 8 Norte 12 Norte 0 -- -- 79
2017-11-15 20:00:00 10.8 0 Calma 2 Nordeste 0 -- -- 76
2017-11-15 19:00:00 11.6 0 Calma 12 Este 0 -- -- 72
2017-11-15 18:00:00 13.6 8 Sudeste 16 Este 0 -- -- 65
2017-11-15 17:00:00 16.4 10 Este 21 Sudeste 0 -- -- 55
2017-11-15 16:00:00 18 14 Sudeste 23 Sudeste 0 -- -- 48
2017-11-15 15:00:00 19.5 12 Sudeste 21 Sudeste 0 -- -- 43
2017-11-15 14:00:00 19.1 6 Sudeste 17 Sudeste 0 -- -- 41
2017-11-15 13:00:00 17.7 5 Sudeste 15 Este 0 -- -- 43
2017-11-15 12:00:00 16.5 5 Sur 15 Sudeste 0 -- -- 45
2017-11-15 11:00:00 14.4 3 Sudeste 9 Sudoeste 0 -- -- 51
2017-11-15 10:00:00 10.5 2 Noroeste 8 Sudoeste 0 -- -- 61
2017-11-15 09:00:00 7 3 Oeste 9 Noroeste 0 -- -- 69
2017-11-15 08:00:00 5.5 5 Noroeste 10 Noroeste 0 -- -- 72
2017-11-15 07:00:00 5.5 6 Oeste 13 Norte 0 -- -- 59
2017-11-15 06:00:00 6.6 3 Norte 17 Norte 0 -- -- 49
2017-11-15 05:00:00 4.9 6 Noroeste 10 Noroeste 0 -- -- 52
2017-11-15 04:00:00 5 6 Noroeste 16 Norte 0 -- -- 54
2017-11-15 03:00:00 6.3 13 Norte 18 Noroeste 0 -- -- 54
2017-11-15 02:00:00 6 3 Oeste 16 Norte 0 -- -- 57
2017-11-15 01:00:00 6.8 12 Norte 15 Norte 0 -- -- 53
2017-11-15 00:00:00 6.8 12 Norte 14 Norte 0 -- -- 54